createdAt,value
2018-04-18T00:00:56.766Z,76.29
2018-04-18T00:01:56.427Z,76.92
2018-04-18T00:02:56.678Z,76.82
2018-04-18T00:03:56.673Z,77.4
2018-04-18T00:04:56.673Z,77.3
2018-04-18T00:05:56.674Z,77.4
2018-04-18T00:06:56.675Z,77.5
2018-04-18T00:07:56.673Z,77.59
2018-04-18T00:08:56.669Z,77.4
2018-04-18T00:09:56.663Z,77.5
2018-04-18T00:10:56.669Z,77.5
2018-04-18T00:11:56.660Z,77.87
2018-04-18T00:12:56.661Z,77.59
2018-04-18T00:13:56.665Z,77.59
2018-04-18T00:14:56.705Z,78.07
2018-04-18T00:15:56.661Z,77.87
2018-04-18T00:16:56.653Z,77.87
2018-04-18T00:17:56.658Z,77.5
2018-04-18T00:18:56.652Z,78.55
2018-04-18T00:19:56.654Z,78.45
2018-04-18T00:20:56.645Z,78.45
2018-04-18T00:21:56.399Z,78.07
2018-04-18T00:22:56.721Z,78.26
2018-04-18T00:23:56.648Z,77.97
2018-04-18T00:24:56.641Z,78.26
2018-04-18T00:25:56.636Z,77.97
2018-04-18T00:26:56.664Z,77.78
2018-04-18T00:27:56.633Z,77.78
2018-04-18T00:28:56.387Z,78.07
2018-04-18T00:29:56.931Z,77.97
2018-04-18T00:30:56.628Z,77.69
2018-04-18T00:31:56.630Z,78.07
2018-04-18T00:32:56.630Z,78.55
2018-04-18T00:33:56.374Z,78.45
2018-04-18T00:34:56.694Z,78.36
2018-04-18T00:35:56.618Z,77.69
2018-04-18T00:36:56.627Z,78.16
2018-04-18T00:37:56.619Z,77.97
2018-04-18T00:38:56.615Z,77.78
2018-04-18T00:39:56.364Z,77.87
2018-04-18T00:40:56.615Z,77.78
2018-04-18T00:41:56.611Z,77.78
2018-04-18T00:42:56.611Z,78.07
2018-04-18T00:43:56.609Z,77.87
2018-04-18T00:44:56.627Z,77.97
2018-04-18T00:45:56.611Z,77.69
2018-04-18T00:46:56.609Z,77.59
2018-04-18T00:47:56.348Z,77.97
2018-04-18T00:48:56.349Z,77.87
2018-04-18T00:49:56.599Z,77.4
2018-04-18T00:50:56.591Z,77.59
2018-04-18T00:51:56.598Z,77.59
2018-04-18T00:52:56.593Z,78.45
2018-04-18T00:53:56.589Z,77.87
2018-04-18T00:54:56.586Z,77.78
2018-04-18T00:55:56.340Z,77.78
2018-04-18T00:56:56.334Z,77.78
2018-04-18T00:57:56.584Z,77.87
2018-04-18T00:58:56.342Z,78.36
2018-04-18T00:59:56.579Z,78.26
2018-04-18T01:00:56.585Z,78.55
2018-04-18T01:01:56.578Z,78.64
2018-04-18T01:02:56.576Z,78.55
2018-04-18T01:03:56.570Z,78.45
2018-04-18T01:04:56.571Z,78.55
2018-04-18T01:05:56.572Z,78.83
2018-04-18T01:06:56.572Z,78.74
2018-04-18T01:07:56.570Z,78.74
2018-04-18T01:08:56.564Z,78.55
2018-04-18T01:09:56.563Z,78.83
2018-04-18T01:10:56.576Z,79.22
2018-04-18T01:11:56.570Z,79.02
2018-04-18T01:12:56.563Z,78.93
2018-04-18T01:13:56.562Z,78.83
2018-04-18T01:14:56.551Z,78.74
2018-04-18T01:15:56.553Z,78.83
2018-04-18T01:16:56.303Z,79.02
2018-04-18T01:17:56.577Z,79.22
2018-04-18T01:18:56.543Z,79.5
2018-04-18T01:19:56.553Z,79.69
2018-04-18T01:20:56.541Z,79.22
2018-04-18T01:21:56.537Z,79.6
2018-04-18T01:22:56.538Z,79.17
2018-04-18T01:23:56.537Z,79.41
2018-04-18T01:24:56.534Z,79.6
2018-04-18T01:25:56.535Z,79.6
2018-04-18T01:26:56.531Z,79.22
2018-04-18T01:27:56.540Z,80.04
2018-04-18T01:28:56.542Z,79.75
2018-04-18T01:29:56.526Z,79.75
2018-04-18T01:30:56.525Z,80.32
2018-04-18T01:31:56.524Z,80.32
2018-04-18T01:32:56.536Z,80.04
2018-04-18T01:33:56.524Z,80.32
2018-04-18T01:34:56.528Z,80.99
2018-04-18T01:35:56.526Z,80.51
2018-04-18T01:36:56.529Z,81.37
2018-04-18T01:37:56.268Z,81.47
2018-04-18T01:38:56.284Z,81.95
2018-04-18T01:39:56.526Z,81.66
2018-04-18T01:40:56.268Z,82.23
2018-04-18T01:41:56.506Z,82.32
2018-04-18T01:42:56.249Z,81.56
2018-04-18T01:43:56.503Z,82.23
2018-04-18T01:44:56.501Z,82.52
2018-04-18T01:45:58.392Z,82.32
2018-04-18T01:46:56.253Z,82.32
2018-04-18T01:47:56.491Z,82.52
2018-04-18T01:48:56.481Z,82.32
2018-04-18T01:49:56.233Z,82.42
2018-04-18T01:50:56.514Z,82.23
2018-04-18T01:51:56.479Z,82.32
2018-04-18T01:52:56.480Z,82.32
2018-04-18T01:53:56.477Z,82.23
2018-04-18T01:54:56.489Z,82.23
2018-04-18T01:55:56.507Z,82.71
2018-04-18T01:56:56.480Z,82.14
2018-04-18T01:57:56.479Z,81.9
2018-04-18T01:58:56.477Z,82.86
2018-04-18T01:59:56.480Z,82.95
2018-04-18T02:00:56.215Z,83.72
2018-04-18T02:01:56.490Z,84
2018-04-18T02:02:56.472Z,83.72
2018-04-18T02:03:56.221Z,83.81
2018-04-18T02:04:56.451Z,84.39
2018-04-18T02:05:56.450Z,84.39
2018-04-18T02:06:56.201Z,84.2
2018-04-18T02:07:56.456Z,83.81
2018-04-18T02:08:56.198Z,84.2
2018-04-18T02:09:56.200Z,84.29
2018-04-18T02:10:56.438Z,83.81
2018-04-18T02:11:56.435Z,84.67
2018-04-18T02:12:56.436Z,84.06
2018-04-18T02:13:56.450Z,84.39
2018-04-18T02:14:56.440Z,84.2
2018-04-18T02:15:56.431Z,84.25
2018-04-18T02:16:56.434Z,84.58
2018-04-18T02:17:56.427Z,84.96
2018-04-18T02:18:56.171Z,84.25
2018-04-18T02:19:56.421Z,84.96
2018-04-18T02:20:56.412Z,84.48
2018-04-18T02:21:56.413Z,84.34
2018-04-18T02:22:56.172Z,85.01
2018-04-18T02:23:56.405Z,84.92
2018-04-18T02:24:56.403Z,85.39
2018-04-18T02:25:56.410Z,85.87
2018-04-18T02:26:56.404Z,85.97
2018-04-18T02:27:56.396Z,85.21
2018-04-18T02:28:56.403Z,85.58
2018-04-18T02:29:56.391Z,85.58
2018-04-18T02:30:56.397Z,86.25
2018-04-18T02:31:56.389Z,86.54
2018-04-18T02:32:56.386Z,86.25
2018-04-18T02:33:56.388Z,86.06
2018-04-18T02:34:56.380Z,86.35
2018-04-18T02:35:56.384Z,86.35
2018-04-18T02:36:56.374Z,86.35
2018-04-18T02:37:56.374Z,86.54
2018-04-18T02:38:56.370Z,87.11
2018-04-18T02:39:56.368Z,86.73
2018-04-18T02:40:56.365Z,86.63
2018-04-18T02:41:56.364Z,86.73
2018-04-18T02:42:56.367Z,87.21
2018-04-18T02:43:56.357Z,87.4
2018-04-18T02:44:56.358Z,87.45
2018-04-18T02:45:56.355Z,87.4
2018-04-18T02:46:56.354Z,87.3
2018-04-18T02:47:56.364Z,87.21
2018-04-18T02:48:56.349Z,87.74
2018-04-18T02:49:56.350Z,87.97
2018-04-18T02:50:56.338Z,87.54
2018-04-18T02:51:56.087Z,88.02
2018-04-18T02:52:56.089Z,87.54
2018-04-18T02:53:56.334Z,88.31
2018-04-18T02:54:56.333Z,88.02
2018-04-18T02:55:56.327Z,88.21
2018-04-18T02:56:56.324Z,88.02
2018-04-18T02:57:56.070Z,88.21
2018-04-18T02:58:56.317Z,88.12
2018-04-18T02:59:56.336Z,88.12
2018-04-18T03:00:56.329Z,88.5
2018-04-18T03:01:56.307Z,88.59
2018-04-18T03:02:56.308Z,88.4
2018-04-18T03:03:56.055Z,88.12
2018-04-18T03:04:56.300Z,88.31
2018-04-18T03:05:56.320Z,88.12
2018-04-18T03:06:56.302Z,88.78
2018-04-18T03:07:56.290Z,88.69
2018-04-18T03:08:56.039Z,88.31
2018-04-18T03:09:56.287Z,89.07
2018-04-18T03:10:56.298Z,89.17
2018-04-18T03:11:56.282Z,88.59
2018-04-18T03:12:56.044Z,88.88
2018-04-18T03:13:56.278Z,89.07
2018-04-18T03:14:56.278Z,88.98
2018-04-18T03:15:56.269Z,89.36
2018-04-18T03:16:56.288Z,89.36
2018-04-18T03:17:56.267Z,89.36
2018-04-18T03:18:56.014Z,89.83
2018-04-18T03:19:56.261Z,89.64
2018-04-18T03:20:56.266Z,89.93
2018-04-18T03:21:56.013Z,89.64
2018-04-18T03:22:56.263Z,89.83
2018-04-18T03:23:56.248Z,89.83
2018-04-18T03:24:56.012Z,90.03
2018-04-18T03:25:56.246Z,90.5
2018-04-18T03:26:56.245Z,90.5
2018-04-18T03:27:56.244Z,90.41
2018-04-18T03:28:55.993Z,90.5
2018-04-18T03:29:56.237Z,90.69
2018-04-18T03:37:37.100Z,91.07
2018-04-18T03:38:19.164Z,90.59
2018-04-18T03:39:19.159Z,90.59
2018-04-18T03:40:19.158Z,91.22
2018-04-18T03:41:18.901Z,91.27
2018-04-18T03:42:19.146Z,91.22
2018-04-18T03:43:18.893Z,91.31
2018-04-18T03:44:19.149Z,91.31
2018-04-18T03:45:18.892Z,91.31
2018-04-18T03:46:19.134Z,90.93
2018-04-18T03:47:19.128Z,90.93
2018-04-18T03:48:18.882Z,91.41
2018-04-18T03:49:18.877Z,91.6
2018-04-18T03:50:19.124Z,91.88
2018-04-18T03:51:18.871Z,92.08
2018-04-18T03:52:18.868Z,92.08
2018-04-18T03:53:19.431Z,92.08
2018-04-18T03:54:19.110Z,91.41
2018-04-18T03:55:19.109Z,91.64
2018-04-18T03:56:18.863Z,92.03
2018-04-18T03:57:18.853Z,91.79
2018-04-18T03:58:18.850Z,91.98
2018-04-18T03:59:19.132Z,91.93
2018-04-18T04:00:19.102Z,91.83
2018-04-18T04:01:18.844Z,91.79
2018-04-18T04:02:19.104Z,91.64
2018-04-18T04:03:18.835Z,91.6
2018-04-18T04:04:19.077Z,91.74
2018-04-18T04:05:19.078Z,91.79
2018-04-18T04:06:18.827Z,92.08
2018-04-18T04:07:19.073Z,92.27
2018-04-18T04:08:21.180Z,92.46
2018-04-18T04:09:18.818Z,92.55
2018-04-18T04:10:19.065Z,92.46
2018-04-18T04:11:19.052Z,93.12
2018-04-18T04:12:18.812Z,93.03
2018-04-18T04:13:19.052Z,93.51
2018-04-18T04:14:19.051Z,92.55
2018-04-18T04:15:19.052Z,92.46
2018-04-18T04:16:19.039Z,92.46
2018-04-18T04:17:19.037Z,92.65
2018-04-18T04:18:19.179Z,92.65
2018-04-18T04:19:19.037Z,93.41
2018-04-18T04:20:19.033Z,93.41
2018-04-18T04:21:18.786Z,92.74
2018-04-18T04:22:18.776Z,92.84
2018-04-18T04:23:19.270Z,92.5
2018-04-18T04:24:19.023Z,91.98
2018-04-18T04:25:18.765Z,92.12
2018-04-18T04:26:19.027Z,91.83
2018-04-18T04:27:19.008Z,91.55
2018-04-18T04:28:19.004Z,91.83
2018-04-18T04:29:18.996Z,91.46
2018-04-18T04:30:19.004Z,90.79
2018-04-18T04:31:18.995Z,91.36
2018-04-18T04:32:18.997Z,91.27
2018-04-18T04:33:18.989Z,91.74
2018-04-18T04:34:18.731Z,91.46
2018-04-18T04:35:18.730Z,91.46
2018-04-18T04:36:18.980Z,91.36
2018-04-18T04:37:18.980Z,90.79
2018-04-18T04:38:20.890Z,90.88
2018-04-18T04:39:18.722Z,91.36
2018-04-18T04:40:18.971Z,91.83
2018-04-18T04:41:18.962Z,91.46
2018-04-18T04:42:18.730Z,91.64
2018-04-18T04:43:18.964Z,91.64
2018-04-18T04:44:18.956Z,91.93
2018-04-18T04:45:18.700Z,91.27
2018-04-18T04:46:18.946Z,91.46
2018-04-18T04:47:18.693Z,90.88
2018-04-18T04:48:18.943Z,90.79
2018-04-18T04:49:18.947Z,90.88
2018-04-18T04:50:18.967Z,90.88
2018-04-18T04:51:18.931Z,90.88
2018-04-18T04:52:18.928Z,90.88
2018-04-18T04:53:18.677Z,90.79
2018-04-18T04:54:18.920Z,91.07
2018-04-18T04:55:18.920Z,91.64
2018-04-18T04:56:18.919Z,91.74
2018-04-18T04:57:18.662Z,91.36
2018-04-18T04:58:18.914Z,90.88
2018-04-18T04:59:18.662Z,90.83
2018-04-18T05:00:18.911Z,89.21
2018-04-18T05:01:18.909Z,87.87
2018-04-18T05:02:18.910Z,86.25
2018-04-18T05:03:18.892Z,85.72
2018-04-18T05:04:18.644Z,84.39
2018-04-18T05:05:18.893Z,83.67
2018-04-18T05:06:18.890Z,82.52
2018-04-18T05:07:18.892Z,81.66
2018-04-18T05:08:18.887Z,81.76
2018-04-18T05:09:18.632Z,81.27
2018-04-18T05:10:18.965Z,81.47
2018-04-18T05:11:18.889Z,80.65
2018-04-18T05:12:18.892Z,80.74
2018-04-18T05:13:18.890Z,80.36
2018-04-18T05:14:18.876Z,79.79
2018-04-18T05:15:18.628Z,79.41
2018-04-18T05:16:18.873Z,79.41
2018-04-18T05:17:18.629Z,79.98
2018-04-18T05:18:18.873Z,80.07
2018-04-18T05:19:18.633Z,80.99
2018-04-18T05:20:18.879Z,81.47
2018-04-18T05:21:18.624Z,81.37
2018-04-18T05:22:18.877Z,82.23
2018-04-18T05:23:18.621Z,82.23
2018-04-18T05:24:18.668Z,82.32
2018-04-18T05:25:18.867Z,82.14
2018-04-18T05:26:18.632Z,82.52
2018-04-18T05:27:18.891Z,82.14
2018-04-18T05:28:18.863Z,82.23
2018-04-18T05:29:18.865Z,82.42
2018-04-18T05:30:18.861Z,82.52
2018-04-18T05:31:18.865Z,81.76
2018-04-18T05:32:18.606Z,82.04
2018-04-18T05:33:18.856Z,80.61
2018-04-18T05:34:18.855Z,79.69
2018-04-18T05:35:18.857Z,78.93
2018-04-18T05:36:18.852Z,77.63
2018-04-18T05:37:18.967Z,76.86
2018-04-18T05:38:18.873Z,75.34
2018-04-18T05:39:20.155Z,74.22
2018-04-18T05:40:18.607Z,73.46
2018-04-18T05:41:18.856Z,72.44
2018-04-18T05:42:18.846Z,71.3
2018-04-18T05:43:18.854Z,70.18
2018-04-18T05:44:18.598Z,69.26
2018-04-18T05:45:18.602Z,68.01
2018-04-18T05:46:18.602Z,66.89
2018-04-18T05:47:18.857Z,66.61
2018-04-18T05:48:18.860Z,66.32
2018-04-18T05:49:18.858Z,65.36
2018-04-18T05:50:18.858Z,64.43
2018-04-18T05:51:18.858Z,63.96
2018-04-18T05:52:18.869Z,63.6
2018-04-18T05:53:18.859Z,62.93
2018-04-18T05:54:19.119Z,62.07
2018-04-18T05:55:18.674Z,61.59
2018-04-18T05:56:18.876Z,61.4
2018-04-18T05:57:18.867Z,61.49
2018-04-18T05:58:18.872Z,61.69
2018-04-18T05:59:18.871Z,62.55
2018-04-18T06:00:18.877Z,63.67
2018-04-18T06:01:18.631Z,64.69
2018-04-18T06:02:18.930Z,66.13
2018-04-18T06:03:18.893Z,67.25
2018-04-18T06:04:18.888Z,68.36
2018-04-18T06:05:18.885Z,69.23
2018-04-18T06:06:19.028Z,70.53
2018-04-18T06:07:18.646Z,71.3
2018-04-18T06:08:18.889Z,71.97
2018-04-18T06:09:19.192Z,72.12
2018-04-18T06:10:18.650Z,72.22
2018-04-18T06:11:18.669Z,73.08
2018-04-18T06:12:18.648Z,73.46
2018-04-18T06:13:18.895Z,74.38
2018-04-18T06:22:48.650Z,66.96
2018-04-18T06:23:48.645Z,66.03
2018-04-18T06:24:48.642Z,65.49
2018-04-18T06:25:48.647Z,63.22
2018-04-18T06:26:48.644Z,61.21
2018-04-18T06:27:48.645Z,60.66
2018-04-18T06:28:48.418Z,59.25
2018-04-18T06:29:48.657Z,57.93
2018-04-18T06:30:48.655Z,57.07
2018-04-18T06:31:48.659Z,56.62
2018-04-18T06:32:48.408Z,55.56
2018-04-18T06:33:48.660Z,55.18
2018-04-18T06:34:48.659Z,54.53
2018-04-18T06:35:48.656Z,53.31
2018-04-18T06:36:48.657Z,51.96
2018-04-18T06:37:48.731Z,52.37
2018-04-18T06:38:48.672Z,51.7
2018-04-18T06:39:48.672Z,50.83
2018-04-18T06:40:48.732Z,50.66
2018-04-18T06:41:48.448Z,50.66
2018-04-18T06:42:49.805Z,49.6
2018-04-18T06:43:48.687Z,49.41
2018-04-18T06:44:48.688Z,49.15
2018-04-18T06:45:48.715Z,48.28
2018-04-18T06:46:48.702Z,48.11
2018-04-18T06:47:48.707Z,47.44
2018-04-18T06:48:48.476Z,46.97
2018-04-18T06:49:48.477Z,45.82
2018-04-18T06:50:48.731Z,45.26
2018-04-18T06:51:48.729Z,45.55
2018-04-18T06:52:48.739Z,45.26
2018-04-18T06:53:48.499Z,44.51
2018-04-18T06:54:48.739Z,44.42
2018-04-18T06:55:48.755Z,43.93
2018-04-18T06:56:48.768Z,44.32
2018-04-18T06:57:48.510Z,44.39
2018-04-18T06:58:48.512Z,43.74
2018-04-18T06:59:48.519Z,43.26
2018-04-18T07:00:48.774Z,43.54
2018-04-18T07:01:48.791Z,43.54
2018-04-18T07:02:48.790Z,43.18
2018-04-18T07:03:48.797Z,42.99
2018-04-18T07:04:48.798Z,42.12
2018-04-18T07:05:48.557Z,41.63
2018-04-18T07:06:48.809Z,41.94
2018-04-18T07:07:48.824Z,42.04
2018-04-18T07:08:48.572Z,41.36
2018-04-18T07:09:48.578Z,41.66
2018-04-18T07:10:48.585Z,41.93
2018-04-18T07:11:48.842Z,41.93
2018-04-18T07:12:48.851Z,41.66
2018-04-18T07:13:48.606Z,40.42
2018-04-18T07:14:48.863Z,40.61
2018-04-18T07:15:48.870Z,40.71
2018-04-18T07:16:48.883Z,39.95
2018-04-18T07:17:48.881Z,39.76
2018-04-18T07:18:48.893Z,39.01
2018-04-18T07:19:48.895Z,39.59
2018-04-18T07:20:48.902Z,39.86
2018-04-18T07:21:48.907Z,40.9
2018-04-18T07:22:48.665Z,41.29
2018-04-18T07:23:48.673Z,42.89
2018-04-18T07:24:48.680Z,43.95
2018-04-18T07:25:48.934Z,45.26
2018-04-18T07:26:48.940Z,46.59
2018-04-18T07:27:48.954Z,48.66
2018-04-18T07:28:48.704Z,49.7
2018-04-18T07:29:48.966Z,51.21
2018-04-18T07:30:48.974Z,51.96
2018-04-18T07:31:48.979Z,53.47
2018-04-18T07:32:48.982Z,54.63
2018-04-18T07:33:48.987Z,55.56
2018-04-18T07:34:48.988Z,56.88
2018-04-18T07:35:48.986Z,56.88
2018-04-18T07:36:48.999Z,56.4
2018-04-18T07:37:49.006Z,54.53
2018-04-18T07:38:48.999Z,52.25
2018-04-18T07:39:49.008Z,51.98
2018-04-18T07:40:49.012Z,50.76
2018-04-18T07:41:49.014Z,50.76
2018-04-18T07:42:48.766Z,51.05
2018-04-18T07:43:48.778Z,50.85
2018-04-18T07:44:48.776Z,50.57
2018-04-18T07:45:48.780Z,49.89
2018-04-18T07:46:48.784Z,49.43
2018-04-18T07:47:49.041Z,47.44
2018-04-18T07:48:49.048Z,45.26
2018-04-18T07:49:49.053Z,43.84
2018-04-18T07:50:49.050Z,42.82
2018-04-18T07:51:49.063Z,42.35
2018-04-18T07:52:48.815Z,42.65
2018-04-18T07:53:48.816Z,41.11
2018-04-18T07:54:48.826Z,41.62
2018-04-18T07:55:49.079Z,40.94
2018-04-18T07:56:48.836Z,40.17
2018-04-18T07:57:49.094Z,40.07
2018-04-18T07:58:49.148Z,40.75
2018-04-18T07:59:49.101Z,39.39
2018-04-18T08:00:48.858Z,39.59
2018-04-18T08:01:49.113Z,41.14
2018-04-18T08:02:49.118Z,41.11
2018-04-18T08:03:49.130Z,39.88
2018-04-18T08:04:48.884Z,40.65
2018-04-18T08:05:49.141Z,41.21
2018-04-18T08:06:49.149Z,42.16
2018-04-18T08:07:49.153Z,43.1
2018-04-18T08:08:49.162Z,42.04
2018-04-18T08:09:48.916Z,42.33
2018-04-18T08:10:49.184Z,41.02
2018-04-18T08:11:49.185Z,40.63
2018-04-18T08:12:49.188Z,40.83
2018-04-18T08:13:51.651Z,41.6
2018-04-18T08:14:49.202Z,41.48
2018-04-18T08:15:48.957Z,40.92
2018-04-18T08:16:49.216Z,40.07
2018-04-18T08:17:49.220Z,39.7
2018-04-18T08:18:49.230Z,38.68
2018-04-18T08:19:49.232Z,37.24
2018-04-18T08:20:49.245Z,36.5
2018-04-18T08:21:49.398Z,35.33
2018-04-18T08:22:49.265Z,34.48
2018-04-18T08:23:49.014Z,33.81
2018-04-18T08:24:49.265Z,33.44
2018-04-18T08:25:49.287Z,32.49
2018-04-18T08:26:49.031Z,32.4
2018-04-18T08:27:49.040Z,31.92
2018-04-18T08:28:49.347Z,31.24
2018-04-18T08:29:49.306Z,31.24
2018-04-18T08:30:49.309Z,30.75
2018-04-18T08:31:49.335Z,31.14
2018-04-18T08:32:49.333Z,32.4
2018-04-18T08:33:49.335Z,33.44
2018-04-18T08:34:49.354Z,33.44
2018-04-18T08:35:49.356Z,33.34
2018-04-18T08:36:49.366Z,34.79
2018-04-18T08:37:49.366Z,35.72
2018-04-18T08:38:49.377Z,36.68
2018-04-18T08:39:49.382Z,37.92
2018-04-18T08:40:49.419Z,39.45
2018-04-18T08:41:49.405Z,39.62
2018-04-18T08:42:49.409Z,39.61
2018-04-18T08:43:52.820Z,40.84
2018-04-18T08:44:49.425Z,41.31
2018-04-18T08:45:49.429Z,41.77
2018-04-18T08:46:49.187Z,42.93
2018-04-18T08:47:49.194Z,42.04
2018-04-18T08:48:49.258Z,42.91
2018-04-18T08:49:49.459Z,42.91
2018-04-18T08:50:49.464Z,43.59
2018-04-18T08:51:49.495Z,43.37
2018-04-18T08:52:49.493Z,43.95
2018-04-18T08:53:49.488Z,44.53
2018-04-18T08:54:49.496Z,43.95
2018-04-18T08:55:49.512Z,44.15
2018-04-18T08:56:49.506Z,44.53
2018-04-18T08:57:49.511Z,45.18
2018-04-18T08:58:49.516Z,44.42
2018-04-18T08:59:49.517Z,43.93
2018-04-18T09:00:49.522Z,45.67
2018-04-18T09:01:49.538Z,46.25
2018-04-18T09:02:49.542Z,45.48
2018-04-18T09:03:49.541Z,43.93
2018-04-18T09:04:49.544Z,43.54
2018-04-18T09:05:49.548Z,43.06
2018-04-18T09:06:49.555Z,43.06
2018-04-18T09:07:49.312Z,42.68
2018-04-18T09:08:49.569Z,43.06
2018-04-18T09:09:49.673Z,42.89
2018-04-18T09:10:49.576Z,42.79
2018-04-18T09:11:49.583Z,42.31
2018-04-18T09:12:49.338Z,41.63
2018-04-18T09:13:49.603Z,41.61
2018-04-18T09:14:49.347Z,41.71
2018-04-18T09:15:49.693Z,41.33
2018-04-18T09:16:49.612Z,42.97
2018-04-18T09:17:49.617Z,44.51
2018-04-18T09:18:49.371Z,42.39
2018-04-18T09:19:49.634Z,41.91
2018-04-18T09:20:49.631Z,41.6
2018-04-18T09:21:49.630Z,42.58
2018-04-18T09:22:49.634Z,42.08
2018-04-18T09:23:49.396Z,44.2
2018-04-18T09:24:49.644Z,47.77
2018-04-18T09:25:49.399Z,46.92
2018-04-18T09:26:49.403Z,44.6
2018-04-18T09:27:49.410Z,44.05
2018-04-18T09:28:49.693Z,43.95
2018-04-18T09:29:49.696Z,43.57
2018-04-18T09:30:49.432Z,41.25
2018-04-18T09:31:49.424Z,40.11
2018-04-18T09:32:49.692Z,40.19
2018-04-18T09:33:49.696Z,40.09
2018-04-18T09:34:49.446Z,40.28
2018-04-18T09:35:49.697Z,40.96
2018-04-18T09:36:49.451Z,43.08
2018-04-18T09:37:49.700Z,41.63
2018-04-18T09:38:49.706Z,41.05
2018-04-18T09:39:49.716Z,39.92
2018-04-18T09:40:49.735Z,39.72
2018-04-18T09:41:49.719Z,39.53
2018-04-18T09:42:49.733Z,39.43
2018-04-18T09:43:49.737Z,40.3
2018-04-18T09:44:49.488Z,39.62
2018-04-18T09:45:49.737Z,41.36
2018-04-18T09:46:49.757Z,41.36
2018-04-18T09:47:49.751Z,39.53
2018-04-18T09:48:49.507Z,39.72
2018-04-18T09:49:49.755Z,39.43
2018-04-18T09:50:49.763Z,38.28
2018-04-18T09:51:49.763Z,37.4
2018-04-18T09:52:49.773Z,37.23
2018-04-18T09:53:49.781Z,38.97
2018-04-18T09:54:49.535Z,38.39
2018-04-18T09:55:49.790Z,38.85
2018-04-18T09:56:49.537Z,38.37
2018-04-18T09:57:49.544Z,36.46
2018-04-18T09:58:49.806Z,37.4
2018-04-18T09:59:49.854Z,37.9
2018-04-18T10:00:49.808Z,37.32
2018-04-18T10:01:49.557Z,36.55
2018-04-18T10:02:49.824Z,36.74
2018-04-18T10:03:49.593Z,36.84
2018-04-18T10:04:49.822Z,35.97
2018-04-18T10:05:49.830Z,35.99
2018-04-18T10:06:49.580Z,34.92
2018-04-18T10:07:49.863Z,34.34
2018-04-18T10:08:49.841Z,33.57
2018-04-18T10:09:49.845Z,33.76
2018-04-18T10:10:49.853Z,34.15
2018-04-18T10:11:49.865Z,33.95
2018-04-18T10:12:49.859Z,33.67
2018-04-18T10:13:49.881Z,34.34
2018-04-18T10:14:53.138Z,34.44
2018-04-18T10:15:49.888Z,34.34
2018-04-18T10:16:49.886Z,34.05
2018-04-18T10:17:49.894Z,34.55
2018-04-18T10:18:49.894Z,34.94
2018-04-18T10:19:49.645Z,34.07
2018-04-18T10:20:49.898Z,33.87
2018-04-18T10:21:49.658Z,34.07
2018-04-18T10:52:33.608Z,30.49
2018-04-18T10:53:29.850Z,30.78
2018-04-18T10:54:29.851Z,30.78
2018-04-18T10:55:29.619Z,30.98
2018-04-18T10:56:29.613Z,30.68
2018-04-18T10:57:29.621Z,32.81
2018-04-18T10:58:29.882Z,33.01
2018-04-18T10:59:29.861Z,32.14
2018-04-18T11:00:29.621Z,31.74
2018-04-18T11:01:29.865Z,31.84
2018-04-18T11:02:29.867Z,34.27
2018-04-18T11:03:29.883Z,33.09
2018-04-18T11:04:29.875Z,33.57
2018-04-18T11:05:29.644Z,32.99
2018-04-18T11:06:29.921Z,31.36
2018-04-18T11:07:29.899Z,32.04
2018-04-18T11:08:29.644Z,31.74
2018-04-18T11:09:29.652Z,31.94
2018-04-18T11:10:29.653Z,33.1
2018-04-18T11:11:29.903Z,33.1
2018-04-18T11:12:29.913Z,31.65
2018-04-18T11:13:29.915Z,33.01
2018-04-18T11:14:29.924Z,32.33
2018-04-18T11:15:29.921Z,34.84
2018-04-18T11:16:29.926Z,33.49
2018-04-18T11:17:29.688Z,33.01
2018-04-18T11:18:29.690Z,31.65
2018-04-18T11:19:29.947Z,31.74
2018-04-18T11:20:29.695Z,31.36
2018-04-18T11:21:29.959Z,30.58
2018-04-18T11:22:29.955Z,30.6
2018-04-18T11:23:29.959Z,31.09
2018-04-18T11:24:29.715Z,34.77
2018-04-18T11:25:29.962Z,32.15
2018-04-18T11:26:29.970Z,32.15
2018-04-18T11:27:29.987Z,33.12
2018-04-18T11:28:30.288Z,32.34
2018-04-18T11:29:29.987Z,33.39
2018-04-18T11:30:29.991Z,32.91
2018-04-18T11:31:29.753Z,33.2
2018-04-18T11:32:30.000Z,33.2
2018-04-18T11:33:29.761Z,33.87
2018-04-18T11:34:30.009Z,31.94
2018-04-18T11:35:30.010Z,31.34
2018-04-18T11:36:30.080Z,31.83
2018-04-18T11:37:30.021Z,31.93
2018-04-18T11:38:30.038Z,31.93
2018-04-18T11:39:30.054Z,32.99
2018-04-18T11:40:30.039Z,33.76
2018-04-18T11:41:30.040Z,37.15
2018-04-18T11:42:30.050Z,33.28
2018-04-18T11:43:30.048Z,31.34
2018-04-18T11:44:29.831Z,32.99
2018-04-18T11:45:30.100Z,33.67
2018-04-18T11:46:30.068Z,32.51
2018-04-18T11:47:30.063Z,32.12
2018-04-18T11:48:29.820Z,31.34
2018-04-18T11:49:29.829Z,31.46
2018-04-18T11:50:30.081Z,32.04
2018-04-18T11:51:29.832Z,32.04
2018-04-18T11:52:30.090Z,31.37
2018-04-18T11:53:30.098Z,30.99
2018-04-18T11:54:29.848Z,30.02
2018-04-18T11:55:30.102Z,30.69
2018-04-18T11:56:30.107Z,31.67
2018-04-18T11:57:30.119Z,33.6
2018-04-18T11:58:30.128Z,33.6
2018-04-18T11:59:29.876Z,33.41
2018-04-18T12:00:30.124Z,33.31
2018-04-18T12:01:30.145Z,33.7
2018-04-18T12:02:30.154Z,33.22
2018-04-18T12:03:30.145Z,33.41
2018-04-18T12:04:30.151Z,32.54
2018-04-18T12:05:30.156Z,34.19
2018-04-18T12:06:30.157Z,31.94
2018-04-18T12:07:29.910Z,32.04
2018-04-18T12:08:29.927Z,31.74
2018-04-18T12:09:30.171Z,30.88
2018-04-18T12:10:30.181Z,30.58
2018-04-18T12:11:30.338Z,30.88
2018-04-18T12:12:30.180Z,29.71
2018-04-18T12:13:30.745Z,29.71
2018-04-18T12:14:30.189Z,32.14
2018-04-18T12:15:29.953Z,34.27
2018-04-18T12:16:30.200Z,33.2
2018-04-18T12:17:30.210Z,32.42
2018-04-18T12:18:29.958Z,31.84
2018-04-18T12:19:30.213Z,33.51
2018-04-18T12:20:30.219Z,33.02
2018-04-18T12:21:30.225Z,31.57
2018-04-18T12:22:30.231Z,31.76
2018-04-18T12:23:32.087Z,32.15
2018-04-18T12:24:30.237Z,31.59
2018-04-18T12:25:30.245Z,30.23
2018-04-18T12:26:29.997Z,31.67
2018-04-18T12:27:30.253Z,33.72
2018-04-18T12:28:30.008Z,31.76
2018-04-18T12:29:30.263Z,31.76
2018-04-18T12:30:30.266Z,30.13
2018-04-18T12:31:30.272Z,29.15
2018-04-18T12:32:30.025Z,30.52
2018-04-18T12:33:30.280Z,31.97
2018-04-18T12:34:30.285Z,30.99
2018-04-18T12:35:30.291Z,31.76
2018-04-18T12:36:30.053Z,30.11
2018-04-18T12:37:30.299Z,31.47
2018-04-18T12:38:30.304Z,31.76
2018-04-18T12:39:30.317Z,31.28
2018-04-18T12:40:30.061Z,31.86
2018-04-18T12:41:30.317Z,32.92
2018-04-18T12:42:30.073Z,30.99
2018-04-18T12:43:30.325Z,30.79
2018-04-18T12:44:30.330Z,30.21
2018-04-18T12:45:30.333Z,30.21
2018-04-18T12:46:30.344Z,29.24
2018-04-18T12:47:30.096Z,29.63
2018-04-18T12:48:30.351Z,29.83
2018-04-18T12:49:30.356Z,28.66
2018-04-18T12:50:30.361Z,27.89
2018-04-18T12:51:30.365Z,30.91
2018-04-18T12:52:30.370Z,30.81
2018-04-18T12:53:30.120Z,31.1
2018-04-18T12:54:30.378Z,30.62
2018-04-18T12:55:30.383Z,30.71
2018-04-18T12:56:30.387Z,29.74
2018-04-18T12:57:30.504Z,29.46
2018-04-18T12:58:30.392Z,29.74
2018-04-18T12:59:30.409Z,29.84
2018-04-18T13:00:30.156Z,29.94
2018-04-18T13:01:30.422Z,30.13
2018-04-18T13:02:30.411Z,30.21
2018-04-18T13:03:30.170Z,30.11
2018-04-18T13:04:30.427Z,30.11
2018-04-18T13:05:30.432Z,29.92
2018-04-18T13:06:30.547Z,30.21
2018-04-18T13:07:30.186Z,30.79
2018-04-18T13:08:30.443Z,35.73
2018-04-18T13:09:30.452Z,31.76
2018-04-18T13:10:30.453Z,30.69
2018-04-18T13:11:30.459Z,30.02
2018-04-18T13:12:30.219Z,28.68
2018-04-18T13:13:30.474Z,27.51
2018-04-18T13:14:30.474Z,27.61
2018-04-18T13:15:30.225Z,27.51
2018-04-18T13:16:30.488Z,28
2018-04-18T13:17:30.487Z,29.16
2018-04-18T13:18:30.486Z,28.87
2018-04-18T13:19:30.246Z,29.46
2018-04-18T13:20:30.249Z,28.19
2018-04-18T13:21:30.256Z,27.71
2018-04-18T13:22:30.510Z,27.51
2018-04-18T13:23:30.263Z,28.56
2018-04-18T13:24:30.521Z,30.13
2018-04-18T13:25:30.590Z,30.69
2018-04-18T13:26:30.528Z,31.87
2018-04-18T13:27:30.540Z,31.01
2018-04-18T13:28:30.581Z,30.52
2018-04-18T13:29:30.548Z,29.84
2018-04-18T13:30:30.553Z,32.36
2018-04-18T13:31:30.303Z,30.52
2018-04-18T13:32:30.305Z,30.13
2018-04-18T13:33:30.309Z,30.23
2018-04-18T13:34:30.568Z,29.84
2018-04-18T13:35:30.574Z,29.36
2018-04-18T13:36:30.574Z,31.87
2018-04-18T13:37:30.579Z,30.32
2018-04-18T13:38:30.579Z,30.04
2018-04-18T13:39:30.601Z,29.64